Time;durP1;ratioP1;P1;durP2;ratioP2;P2;SDS_P1;SDS_P2;PMS_P1;PMS_P2;Temp;Humidity;BMP_temperature;BMP_pressure;BME280_temperature;BME280_humidity;BME280_pressure;Samples;Min_cycle;Max_cycle;Signal;HPM_P1;HPM_P2
2023/10/02 00:01:17;;;;;;;27.02;14.32;;;17.30;99.90;;;;;;5044492;28;37072;-78
2023/10/02 00:03:48;;;;;;;26.33;13.98;;;17.30;99.90;;;;;;5036199;28;48479;-78
2023/10/02 00:06:17;;;;;;;24.15;13.85;;;17.20;99.90;;;;;;5020099;28;37928;-78
2023/10/02 00:08:49;;;;;;;28.73;14.05;;;17.20;99.90;;;;;;5021234;28;38428;-77
2023/10/02 00:14:25;;;;;;;25.40;13.90;;;17.20;99.90;;;;;;5040553;28;37901;-77
2023/10/02 00:16:59;;;;;;;22.73;13.73;;;17.10;99.90;;;;;;5045632;28;48187;-78
2023/10/02 00:19:41;;;;;;;24.33;12.93;;;17.00;99.90;;;;;;5018138;28;37721;-77
2023/10/02 00:22:09;;;;;;;24.15;14.50;;;17.00;99.90;;;;;;5020557;28;38773;-79
2023/10/02 00:24:38;;;;;;;24.05;12.75;;;17.00;99.90;;;;;;5022790;28;37590;-78
2023/10/02 00:27:06;;;;;;;23.02;12.90;;;17.00;99.90;;;;;;5026820;28;37325;-78
2023/10/02 00:29:32;;;;;;;21.85;12.95;;;16.90;99.90;;;;;;5040757;28;38978;-76
2023/10/02 00:31:59;;;;;;;18.50;11.85;;;16.90;99.90;;;;;;5044218;28;38709;-77
2023/10/02 00:34:32;;;;;;;20.25;12.00;;;16.90;99.90;;;;;;5014906;28;38522;-77
2023/10/02 00:37:12;;;;;;;19.45;11.70;;;16.90;99.90;;;;;;5033168;28;38470;-78
2023/10/02 00:39:40;;;;;;;23.40;13.02;;;16.90;99.90;;;;;;5040832;28;47141;-78
2023/10/02 00:42:16;;;;;;;20.65;12.38;;;16.80;99.90;;;;;;5030108;28;38029;-78
2023/10/02 00:44:54;;;;;;;19.73;12.07;;;16.90;99.90;;;;;;5043512;28;38616;-79
2023/10/02 00:47:50;;;;;;;19.40;11.82;;;16.90;99.90;;;;;;5042786;28;37333;-79
2023/10/02 00:50:25;;;;;;;20.42;12.35;;;16.80;99.90;;;;;;5038482;28;38986;-78
2023/10/02 00:52:59;;;;;;;19.65;11.80;;;16.80;99.90;;;;;;5041418;28;39544;-78
2023/10/02 00:55:30;;;;;;;22.75;12.43;;;16.80;99.90;;;;;;5029876;28;39135;-79
2023/10/02 00:57:56;;;;;;;22.17;12.05;;;16.80;99.90;;;;;;5039351;28;37651;-78
2023/10/02 01:00:31;;;;;;;20.80;11.57;;;16.80;99.90;;;;;;5022302;28;37574;-78
2023/10/02 01:02:59;;;;;;;19.13;11.80;;;16.70;99.90;;;;;;5029948;28;38446;-78
2023/10/02 01:05:41;;;;;;;22.52;12.88;;;16.70;99.90;;;;;;5021386;28;37233;-78
2023/10/02 01:11:05;;;;;;;21.65;12.43;;;16.70;99.90;;;;;;5042954;28;40296;-77
2023/10/02 01:13:35;;;;;;;26.23;12.80;;;16.70;99.90;;;;;;5030272;28;37631;-77
2023/10/02 01:16:04;;;;;;;21.00;12.43;;;16.80;99.90;;;;;;5045810;28;39585;-77
2023/10/02 01:18:31;;;;;;;22.20;11.77;;;16.80;99.90;;;;;;5028187;28;47230;-77
2023/10/02 01:20:59;;;;;;;22.17;12.40;;;16.80;99.90;;;;;;5022548;28;39240;-78
2023/10/02 01:23:30;;;;;;;25.98;13.02;;;16.80;99.90;;;;;;5040118;28;38853;-78
2023/10/02 01:26:00;;;;;;;26.23;12.07;;;16.80;99.90;;;;;;5048710;28;38836;-77
2023/10/02 01:28:49;;;;;;;21.80;11.43;;;16.80;99.90;;;;;;5039166;28;37060;-77
2023/10/02 01:31:53;;;;;;;22.67;12.55;;;16.80;99.90;;;;;;5029360;28;38432;-77
2023/10/02 01:36:58;;;;;;;21.50;12.35;;;16.70;99.90;;;;;;5034141;28;39338;-77
2023/10/02 01:39:24;;;;;;;20.00;11.65;;;16.70;99.90;;;;;;5023667;28;37764;-76
2023/10/02 01:41:52;;;;;;;20.27;12.15;;;16.70;99.90;;;;;;5029980;28;38702;-78
2023/10/02 01:44:22;;;;;;;20.60;11.70;;;16.70;99.90;;;;;;5020844;28;37762;-78
2023/10/02 01:46:49;;;;;;;22.60;12.60;;;16.70;99.90;;;;;;5025222;28;38798;-77
2023/10/02 01:49:26;;;;;;;25.52;13.23;;;16.70;99.90;;;;;;5018055;28;37333;-78
2023/10/02 01:51:55;;;;;;;29.67;13.55;;;16.70;99.90;;;;;;5027676;28;37854;-76
2023/10/02 01:54:22;;;;;;;22.70;12.00;;;16.70;99.90;;;;;;5026596;28;37554;-77
2023/10/02 01:56:49;;;;;;;22.42;12.35;;;16.60;99.90;;;;;;5046324;28;36780;-76
2023/10/02 01:59:19;;;;;;;19.58;11.77;;;16.60;99.90;;;;;;5023641;28;36919;-76
2023/10/02 02:01:52;;;;;;;25.55;12.38;;;16.60;99.90;;;;;;5044130;28;39046;-78
2023/10/02 02:04:22;;;;;;;23.42;12.57;;;16.60;99.90;;;;;;5044692;28;37835;-77
2023/10/02 02:06:56;;;;;;;20.95;12.43;;;16.60;99.90;;;;;;5052694;28;39006;-77
2023/10/02 02:09:31;;;;;;;23.98;13.43;;;16.50;99.90;;;;;;5029522;28;37429;-76
2023/10/02 02:12:05;;;;;;;23.50;13.25;;;16.60;99.90;;;;;;5038116;28;39212;-76
2023/10/02 02:14:52;;;;;;;20.27;11.95;;;16.50;99.90;;;;;;5044500;28;48682;-77
2023/10/02 02:17:24;;;;;;;20.33;11.30;;;16.50;99.90;;;;;;5041229;28;39652;-78
2023/10/02 02:19:50;;;;;;;21.13;12.25;;;16.50;99.90;;;;;;5025907;28;37560;-79
2023/10/02 02:22:31;;;;;;;19.33;11.30;;;16.50;99.90;;;;;;5039708;28;40174;-79
2023/10/02 02:24:58;;;;;;;21.17;12.20;;;16.50;99.90;;;;;;5041748;28;38320;-78
2023/10/02 02:27:25;;;;;;;22.77;11.40;;;16.40;99.90;;;;;;5051303;28;37485;-77
2023/10/02 02:29:57;;;;;;;18.48;11.63;;;16.40;99.90;;;;;;5026958;28;36306;-78
2023/10/02 02:32:44;;;;;;;19.45;11.10;;;16.40;99.90;;;;;;5026258;28;38127;-77
2023/10/02 02:35:13;;;;;;;21.00;11.27;;;16.40;99.90;;;;;;5014693;28;37792;-77
2023/10/02 02:37:41;;;;;;;17.15;10.90;;;16.30;99.90;;;;;;5041599;28;39090;-78
2023/10/02 02:40:25;;;;;;;19.13;10.70;;;16.30;99.90;;;;;;5018306;28;37217;-77
2023/10/02 02:42:52;;;;;;;18.15;10.93;;;16.20;99.90;;;;;;5043062;28;38544;-77
2023/10/02 02:45:28;;;;;;;20.70;11.48;;;16.20;99.90;;;;;;5022742;28;39103;-77
2023/10/02 02:47:55;;;;;;;25.27;13.55;;;16.20;99.90;;;;;;5037756;28;37896;-77
2023/10/02 02:50:28;;;;;;;24.35;13.00;;;16.20;99.90;;;;;;5031002;28;36645;-77
2023/10/02 02:53:16;;;;;;;22.98;11.93;;;16.20;99.90;;;;;;5042936;28;38262;-76
2023/10/02 02:55:40;;;;;;;19.50;11.15;;;16.10;99.90;;;;;;5045398;28;48222;-77
2023/10/02 02:58:08;;;;;;;17.75;10.50;;;16.10;99.90;;;;;;5045386;28;38085;-77
2023/10/02 03:00:35;;;;;;;26.70;12.30;;;16.10;99.90;;;;;;5035293;28;38987;-75
2023/10/02 03:03:02;;;;;;;24.27;12.60;;;16.00;99.90;;;;;;5015246;28;39045;-77
2023/10/02 03:05:40;;;;;;;23.60;11.75;;;16.10;99.90;;;;;;5034691;28;38455;-76
2023/10/02 03:08:12;;;;;;;23.70;11.35;;;16.10;99.90;;;;;;5019196;28;37509;-76
2023/10/02 03:10:40;;;;;;;19.00;11.60;;;16.00;99.90;;;;;;5029079;28;37033;-77
2023/10/02 03:13:16;;;;;;;18.98;11.20;;;16.00;99.90;;;;;;5045833;28;38990;-77
2023/10/02 03:15:46;;;;;;;18.98;11.48;;;16.00;99.90;;;;;;5026581;28;37989;-77
2023/10/02 03:18:23;;;;;;;20.67;11.15;;;16.00;99.90;;;;;;5022866;28;37592;-77
2023/10/02 03:20:50;;;;;;;19.23;11.38;;;16.00;99.90;;;;;;5026954;28;37537;-78
2023/10/02 03:23:18;;;;;;;19.50;11.18;;;15.90;99.90;;;;;;5051242;28;39716;-77
2023/10/02 03:25:48;;;;;;;20.38;11.63;;;15.90;99.90;;;;;;5027445;28;38651;-77
2023/10/02 03:28:32;;;;;;;21.52;12.13;;;15.90;99.90;;;;;;5021257;28;37464;-78
2023/10/02 03:31:03;;;;;;;17.83;10.52;;;15.90;99.90;;;;;;5025675;28;36494;-77
2023/10/02 03:33:32;;;;;;;21.83;11.65;;;15.80;99.90;;;;;;5014727;28;47092;-77
2023/10/02 03:36:10;;;;;;;21.80;11.43;;;15.80;99.90;;;;;;5028323;28;38733;-77
2023/10/02 03:38:43;;;;;;;20.75;11.68;;;15.80;99.90;;;;;;5043452;28;48617;-78
2023/10/02 03:41:11;;;;;;;22.30;12.02;;;15.70;99.90;;;;;;5037288;28;38350;-77
2023/10/02 03:43:49;;;;;;;24.40;13.25;;;15.70;99.90;;;;;;5042535;28;39488;-78
2023/10/02 03:46:22;;;;;;;22.80;13.90;;;15.80;99.90;;;;;;5038148;28;39862;-77
2023/10/02 03:48:58;;;;;;;26.35;14.45;;;15.80;99.90;;;;;;5048768;28;37971;-78
2023/10/02 03:51:36;;;;;;;25.92;13.73;;;15.90;99.90;;;;;;5055540;28;37539;-78
2023/10/02 03:54:17;;;;;;;24.15;14.23;;;16.00;99.90;;;;;;5038934;28;38662;-77
2023/10/02 03:56:47;;;;;;;29.02;14.75;;;15.90;99.90;;;;;;5032552;28;37691;-78
2023/10/02 03:59:17;;;;;;;29.83;14.75;;;15.90;99.90;;;;;;5025027;28;37809;-78
2023/10/02 04:01:43;;;;;;;27.77;14.15;;;16.00;99.90;;;;;;5022458;28;36603;-77
2023/10/02 04:06:47;;;;;;;31.13;16.02;;;16.00;99.90;;;;;;5048942;28;40139;-78
2023/10/02 04:11:42;;;;;;;28.67;15.45;;;16.10;99.90;;;;;;5038306;28;37087;-78
2023/10/02 04:14:18;;;;;;;29.60;16.35;;;16.10;99.90;;;;;;5018792;28;39196;-78
2023/10/02 04:19:48;;;;;;;28.10;15.57;;;16.20;99.90;;;;;;5045958;28;49703;-77
2023/10/02 04:22:25;;;;;;;28.52;14.35;;;16.20;99.90;;;;;;5048870;28;37366;-78
2023/10/02 04:24:58;;;;;;;24.10;14.30;;;16.20;99.90;;;;;;5026333;28;38990;-77
2023/10/02 04:32:39;;;;;;;28.02;14.98;;;16.20;99.90;;;;;;5043514;28;39178;-77
2023/10/02 04:35:43;;;;;;;28.23;15.85;;;16.20;99.90;;;;;;5041061;28;38403;-77
2023/10/02 04:37:57;;;;;;;28.17;15.18;;;16.20;99.90;;;;;;5043396;28;48395;-77
2023/10/02 04:40:27;;;;;;;31.60;15.40;;;16.20;99.90;;;;;;5034968;28;38186;-78
2023/10/02 04:42:57;;;;;;;28.95;15.40;;;16.20;99.90;;;;;;5025887;28;36860;-78
2023/10/02 04:45:34;;;;;;;26.83;15.02;;;16.20;99.90;;;;;;5038677;28;38190;-78
2023/10/02 04:48:00;;;;;;;27.50;14.43;;;16.10;99.90;;;;;;5026947;28;39507;-77
2023/10/02 04:52:58;;;;;;;32.88;16.58;;;16.10;99.90;;;;;;5043582;28;37490;-77
2023/10/02 04:55:27;;;;;;;25.80;14.32;;;16.10;99.90;;;;;;5037951;28;39753;-77
2023/10/02 04:57:56;;;;;;;29.60;15.27;;;16.10;99.90;;;;;;5021808;28;37867;-77
2023/10/02 05:00:28;;;;;;;28.63;15.75;;;16.00;99.90;;;;;;5022780;28;37351;-77
2023/10/02 05:05:47;;;;;;;34.30;16.25;;;16.00;99.90;;;;;;5051537;28;49135;-78
2023/10/02 05:08:21;;;;;;;33.40;17.25;;;16.00;99.90;;;;;;5041338;28;39228;-78
2023/10/02 05:11:05;;;;;;;33.50;17.58;;;16.00;99.90;;;;;;5022167;28;37612;-77
2023/10/02 05:13:59;;;;;;;25.50;14.70;;;16.00;99.90;;;;;;5033374;28;48062;-78
2023/10/02 05:16:34;;;;;;;28.20;16.08;;;16.00;99.90;;;;;;5037046;28;38423;-77
2023/10/02 05:19:05;;;;;;;29.90;16.27;;;16.00;99.90;;;;;;5016420;28;37515;-77
2023/10/02 05:21:50;;;;;;;28.70;15.60;;;16.00;99.90;;;;;;5016894;28;47164;-78
2023/10/02 05:24:19;;;;;;;28.17;15.48;;;16.00;99.90;;;;;;5045052;28;37160;-77
2023/10/02 05:26:46;;;;;;;27.90;15.52;;;16.00;99.90;;;;;;5027042;28;37919;-77
2023/10/02 05:29:17;;;;;;;29.85;15.80;;;16.00;99.90;;;;;;5044578;28;39513;-77
2023/10/02 05:31:47;;;;;;;30.75;15.93;;;16.00;99.90;;;;;;5023549;28;37547;-77
2023/10/02 05:34:24;;;;;;;28.02;15.88;;;16.00;99.90;;;;;;5033560;28;36481;-76
2023/10/02 05:37:23;;;;;;;28.00;15.38;;;16.00;99.90;;;;;;5030674;28;37792;-77
2023/10/02 05:39:50;;;;;;;26.55;14.90;;;16.00;99.90;;;;;;5023520;28;47073;-76
2023/10/02 05:42:16;;;;;;;33.63;16.92;;;16.00;99.90;;;;;;5035905;28;37605;-75
2023/10/02 05:44:44;;;;;;;30.33;16.33;;;16.00;99.90;;;;;;5009424;28;36343;-76
2023/10/02 05:47:24;;;;;;;31.42;16.80;;;16.10;99.90;;;;;;5033925;28;39712;-75
2023/10/02 05:49:53;;;;;;;31.90;16.63;;;16.10;99.90;;;;;;5025611;28;38073;-75
2023/10/02 05:52:20;;;;;;;31.45;16.85;;;16.10;99.90;;;;;;5039907;28;39491;-75
2023/10/02 05:54:49;;;;;;;31.85;15.40;;;16.20;99.90;;;;;;5023874;28;36049;-77
2023/10/02 05:57:17;;;;;;;28.70;15.88;;;16.20;99.90;;;;;;5036398;28;37669;-75
2023/10/02 05:59:45;;;;;;;32.33;16.23;;;16.20;99.90;;;;;;5026239;28;38123;-75
2023/10/02 06:02:19;;;;;;;25.90;15.02;;;16.30;99.90;;;;;;5017786;28;37199;-74
2023/10/02 06:04:52;;;;;;;28.52;15.57;;;16.30;99.90;;;;;;5038735;28;36316;-75
2023/10/02 06:10:25;;;;;;;24.27;13.75;;;16.30;99.90;;;;;;5024227;28;39487;-76
2023/10/02 06:13:03;;;;;;;27.58;15.25;;;16.30;99.90;;;;;;5000192;28;37577;-76
2023/10/02 06:15:43;;;;;;;28.45;14.68;;;16.20;99.90;;;;;;5030754;28;47278;-76
2023/10/02 06:18:09;;;;;;;27.75;15.65;;;16.30;99.90;;;;;;5014719;28;38459;-75
2023/10/02 06:20:35;;;;;;;25.23;15.45;;;16.30;99.90;;;;;;5014098;28;37817;-76
2023/10/02 06:23:19;;;;;;;30.45;16.00;;;16.30;99.90;;;;;;5014343;28;40871;-76
2023/10/02 06:25:46;;;;;;;26.55;14.98;;;16.30;99.90;;;;;;5032224;28;37435;-77
2023/10/02 06:28:27;;;;;;;29.17;15.52;;;16.30;99.90;;;;;;5030168;28;39666;-77
2023/10/02 06:30:54;;;;;;;31.02;15.40;;;16.30;99.90;;;;;;5031666;28;39055;-77
2023/10/02 06:33:21;;;;;;;28.40;14.90;;;16.40;99.90;;;;;;5027948;28;38334;-76
2023/10/02 06:36:00;;;;;;;27.35;15.88;;;16.40;99.90;;;;;;5017369;28;38691;-76
2023/10/02 06:38:30;;;;;;;32.40;16.55;;;16.40;99.90;;;;;;5011612;28;38438;-76
2023/10/02 06:40:57;;;;;;;26.77;15.75;;;16.40;99.90;;;;;;5014245;28;38598;-77
2023/10/02 06:43:29;;;;;;;34.58;16.70;;;16.40;99.90;;;;;;5027807;28;38187;-77
2023/10/02 06:46:06;;;;;;;30.40;15.48;;;16.50;99.90;;;;;;5041825;28;38429;-76
2023/10/02 06:48:37;;;;;;;31.88;16.67;;;16.50;99.90;;;;;;5027981;28;48471;-78
2023/10/02 06:51:04;;;;;;;25.58;14.75;;;16.50;99.90;;;;;;5027045;28;38288;-76
2023/10/02 06:53:30;;;;;;;34.03;16.00;;;16.50;99.90;;;;;;5022523;28;37686;-76
2023/10/02 06:56:09;;;;;;;29.20;15.80;;;16.50;99.90;;;;;;5032322;28;36954;-77
2023/10/02 06:58:46;;;;;;;29.73;15.25;;;16.50;99.90;;;;;;5019158;28;47083;-76
2023/10/02 07:01:14;;;;;;;32.17;17.08;;;16.60;99.90;;;;;;5012761;28;38316;-77
2023/10/02 07:03:40;;;;;;;30.13;16.58;;;16.60;99.90;;;;;;5032665;28;38287;-75
2023/10/02 07:06:10;;;;;;;30.50;17.02;;;16.70;99.90;;;;;;5037797;28;36608;-75
2023/10/02 07:08:39;;;;;;;26.67;15.48;;;16.70;99.90;;;;;;5020893;28;37198;-76
2023/10/02 07:11:10;;;;;;;38.00;18.10;;;16.80;99.90;;;;;;5031663;28;38490;-76
2023/10/02 07:13:51;;;;;;;27.35;14.70;;;16.90;99.90;;;;;;5019421;28;37431;-77
2023/10/02 07:16:18;;;;;;;24.35;14.02;;;16.90;99.90;;;;;;5018199;28;36728;-78
2023/10/02 07:18:49;;;;;;;28.02;15.38;;;16.90;99.90;;;;;;5041216;28;38601;-76
2023/10/02 07:21:22;;;;;;;23.55;15.32;;;17.00;99.90;;;;;;5031231;28;37993;-77
2023/10/02 07:23:49;;;;;;;33.55;16.67;;;17.00;99.90;;;;;;5031417;28;39348;-77
2023/10/02 07:26:20;;;;;;;25.92;15.50;;;17.00;99.90;;;;;;5032539;28;37511;-76
2023/10/02 07:28:50;;;;;;;27.42;15.23;;;17.10;99.90;;;;;;5026567;28;39097;-77
2023/10/02 07:31:20;;;;;;;25.75;15.35;;;17.10;99.90;;;;;;5037062;28;38543;-75
2023/10/02 07:33:46;;;;;;;26.65;14.57;;;17.20;99.90;;;;;;5022274;28;38772;-75
2023/10/02 07:36:14;;;;;;;22.20;14.48;;;17.30;99.90;;;;;;5030422;28;37524;-76
2023/10/02 07:38:47;;;;;;;23.20;14.32;;;17.40;99.90;;;;;;5016933;28;37351;-76
2023/10/02 07:41:23;;;;;;;29.00;16.48;;;17.50;99.90;;;;;;5022081;28;38915;-77
2023/10/02 07:43:54;;;;;;;28.42;16.33;;;17.50;99.90;;;;;;5017199;28;37574;-77
2023/10/02 07:46:21;;;;;;;27.63;15.60;;;17.60;99.90;;;;;;5030274;28;37171;-78
2023/10/02 07:48:57;;;;;;;25.83;15.02;;;17.80;99.90;;;;;;5019421;28;38573;-77
2023/10/02 07:51:30;;;;;;;26.65;15.82;;;17.90;99.90;;;;;;5036722;28;38487;-76
2023/10/02 07:53:59;;;;;;;23.35;15.38;;;18.00;99.90;;;;;;5016046;28;38167;-77
2023/10/02 07:56:29;;;;;;;26.38;15.70;;;18.10;99.90;;;;;;5016491;28;37696;-78
2023/10/02 07:58:59;;;;;;;31.77;16.65;;;18.10;99.90;;;;;;5040357;28;38573;-77
2023/10/02 08:01:33;;;;;;;24.27;14.88;;;18.00;99.90;;;;;;5031423;28;38902;-77
2023/10/02 08:04:01;;;;;;;28.30;16.13;;;18.10;99.90;;;;;;5040894;28;38184;-77
2023/10/02 08:11:51;;;;;;;27.30;17.38;;;18.40;99.90;;;;;;5032790;28;49176;-75
2023/10/02 08:17:25;;;;;;;28.08;15.57;;;18.40;99.90;;;;;;5037535;28;37297;-77
2023/10/02 08:19:56;;;;;;;29.48;16.27;;;18.40;99.90;;;;;;5033839;28;38994;-76
2023/10/02 08:22:24;;;;;;;28.50;17.17;;;18.40;99.90;;;;;;5012933;28;38681;-75
2023/10/02 08:24:52;;;;;;;30.45;17.17;;;18.50;99.90;;;;;;5036842;28;38177;-75
2023/10/02 08:27:19;;;;;;;32.95;18.88;;;18.40;99.90;;;;;;5031351;28;37155;-75
2023/10/02 08:29:45;;;;;;;32.45;18.27;;;18.40;99.90;;;;;;5018766;28;38616;-75
2023/10/02 08:32:12;;;;;;;27.27;17.30;;;18.40;99.90;;;;;;5028557;28;38836;-78
2023/10/02 08:34:38;;;;;;;28.13;16.88;;;18.50;99.90;;;;;;5030157;28;38133;-76
2023/10/02 08:37:07;;;;;;;28.48;17.30;;;18.60;99.90;;;;;;5012057;28;36751;-75
2023/10/02 08:39:38;;;;;;;26.45;16.88;;;18.60;99.90;;;;;;5018132;28;39416;-76
2023/10/02 08:42:11;;;;;;;30.48;17.65;;;18.70;99.90;;;;;;5017391;28;38372;-74
2023/10/02 08:44:41;;;;;;;29.98;17.95;;;18.70;99.90;;;;;;5024204;28;36890;-75
2023/10/02 08:47:11;;;;;;;30.30;18.38;;;18.80;99.90;;;;;;5037906;28;38037;-76
2023/10/02 08:49:39;;;;;;;33.65;18.48;;;18.90;99.90;;;;;;5034196;28;38590;-76
2023/10/02 08:52:11;;;;;;;27.02;16.98;;;19.00;99.90;;;;;;5039852;28;39475;-76
2023/10/02 08:54:42;;;;;;;30.20;16.17;;;19.00;99.90;;;;;;5030478;28;37888;-76
2023/10/02 08:57:09;;;;;;;27.17;17.75;;;19.20;99.90;;;;;;5031097;28;36824;-76
2023/10/02 08:59:39;;;;;;;36.85;20.20;;;19.30;99.90;;;;;;5019808;28;37957;-76
2023/10/02 09:02:16;;;;;;;29.73;18.23;;;19.30;99.90;;;;;;5036388;28;38287;-77
2023/10/02 09:05:09;;;;;;;32.20;18.75;;;19.20;99.90;;;;;;5033436;28;38514;-77
2023/10/02 09:07:45;;;;;;;34.63;18.35;;;19.10;99.90;;;;;;5018228;28;47203;-75
2023/10/02 09:10:18;;;;;;;32.20;19.60;;;19.20;99.90;;;;;;5032337;28;37839;-75
2023/10/02 09:12:51;;;;;;;32.22;18.58;;;19.20;99.90;;;;;;5027945;28;39094;-76
2023/10/02 09:15:32;;;;;;;33.17;19.20;;;19.20;99.90;;;;;;5039889;28;39185;-76
2023/10/02 09:17:59;;;;;;;34.30;19.30;;;19.20;99.90;;;;;;5021388;28;36757;-75
2023/10/02 09:20:38;;;;;;;29.98;18.88;;;19.40;99.90;;;;;;5033855;28;39316;-76
2023/10/02 09:23:09;;;;;;;32.33;18.67;;;19.60;99.90;;;;;;5016508;28;37559;-77
2023/10/02 09:25:40;;;;;;;36.83;18.98;;;19.80;99.90;;;;;;5031616;28;37256;-76
2023/10/02 09:28:13;;;;;;;33.85;18.42;;;19.90;99.90;;;;;;5043022;28;37078;-77
2023/10/02 09:30:41;;;;;;;24.75;15.82;;;19.90;99.90;;;;;;5034908;28;37824;-77
2023/10/02 09:33:10;;;;;;;29.55;17.73;;;20.00;99.90;;;;;;5028465;28;37620;-76
2023/10/02 09:35:40;;;;;;;30.15;18.15;;;20.00;99.90;;;;;;5031308;28;38202;-77
2023/10/02 09:38:07;;;;;;;35.88;17.80;;;19.90;99.90;;;;;;5039962;28;36991;-77
2023/10/02 09:40:59;;;;;;;32.83;17.88;;;19.80;99.90;;;;;;5027440;28;37489;-77
2023/10/02 09:43:31;;;;;;;34.75;17.60;;;19.90;99.90;;;;;;5036100;28;39508;-76
2023/10/02 09:46:06;;;;;;;34.25;18.48;;;19.90;99.90;;;;;;5024489;28;36913;-77
2023/10/02 09:48:53;;;;;;;28.13;17.30;;;19.80;99.90;;;;;;5026896;28;47330;-77
2023/10/02 09:51:32;;;;;;;32.28;16.95;;;19.80;99.90;;;;;;5038153;28;38572;-77
2023/10/02 09:54:32;;;;;;;28.55;16.00;;;19.90;99.90;;;;;;5035935;28;38913;-77
2023/10/02 09:57:11;;;;;;;30.55;15.73;;;20.10;99.90;;;;;;5019984;28;46738;-77
2023/10/02 09:59:46;;;;;;;26.88;16.27;;;20.30;99.90;;;;;;5043744;28;46694;-77
2023/10/02 10:02:57;;;;;;;24.15;14.07;;;20.30;99.90;;;;;;5018801;28;38013;-77
2023/10/02 10:07:49;;;;;;;30.25;16.42;;;20.20;99.90;;;;;;5037582;28;49300;-77
2023/10/02 10:10:28;;;;;;;29.77;18.08;;;20.20;99.90;;;;;;5038380;28;38074;-78
2023/10/02 10:12:55;;;;;;;32.15;17.20;;;20.10;99.90;;;;;;5024032;28;37592;-78
2023/10/02 10:15:26;;;;;;;36.17;17.33;;;20.10;99.90;;;;;;5042535;28;37942;-76
2023/10/02 10:17:55;;;;;;;29.00;16.65;;;20.20;99.90;;;;;;5042960;28;37609;-78
2023/10/02 10:20:23;;;;;;;29.67;17.25;;;20.40;99.90;;;;;;5022913;28;38985;-78
2023/10/02 10:22:56;;;;;;;29.08;17.10;;;20.50;99.90;;;;;;5026465;28;37760;-79
2023/10/02 10:27:54;;;;;;;30.42;15.65;;;20.50;99.90;;;;;;5038870;28;38564;-79
2023/10/02 10:30:24;;;;;;;;;;;20.70;99.90;;;;;;5015091;28;36599;-77
2023/10/02 10:35:41;;;;;;;23.75;14.15;;;21.20;99.90;;;;;;5033805;28;48714;-77
2023/10/02 10:38:25;;;;;;;26.58;15.35;;;21.40;99.90;;;;;;5034967;28;38176;-80
2023/10/02 10:41:01;;;;;;;29.63;15.43;;;21.30;99.90;;;;;;5043469;28;37111;-78
2023/10/02 10:43:43;;;;;;;29.88;16.35;;;21.20;99.90;;;;;;5027739;28;37548;-78
2023/10/02 10:46:19;;;;;;;25.80;15.38;;;21.10;99.90;;;;;;5033150;28;39064;-79
2023/10/02 10:49:15;;;;;;;28.40;15.38;;;21.00;99.90;;;;;;5029996;28;37481;-79
2023/10/02 10:51:42;;;;;;;29.17;15.52;;;21.00;99.90;;;;;;5038445;28;47287;-78
2023/10/02 10:54:22;;;;;;;30.40;15.68;;;20.90;99.90;;;;;;5026243;28;37410;-78
2023/10/02 10:57:19;;;;;;;26.83;15.95;;;20.80;99.90;;;;;;5026380;28;37470;-79
2023/10/02 11:00:23;;;;;;;29.92;14.38;;;21.00;99.90;;;;;;5033322;28;47162;-76
2023/10/02 11:06:03;;;;;;;25.63;14.65;;;21.00;99.90;;;;;;5012578;28;47978;-78
2023/10/02 11:08:30;;;;;;;25.40;12.98;;;21.00;99.90;;;;;;5036930;28;48388;-77
2023/10/02 11:11:18;;;;;;;27.05;13.73;;;21.20;99.90;;;;;;5039663;28;39169;-78
2023/10/02 11:13:58;;;;;;;23.58;13.20;;;21.10;99.90;;;;;;5020757;28;49015;-79
2023/10/02 11:16:34;;;;;;;25.60;15.18;;;21.20;99.90;;;;;;5040386;28;38881;-77
2023/10/02 11:22:18;;;;;;;19.90;11.43;;;21.50;99.90;;;;;;5035058;28;49154;-78
2023/10/02 11:24:51;;;;;;;25.35;14.50;;;21.70;99.90;;;;;;5035762;28;47160;-78
2023/10/02 11:27:18;;;;;;;;;;;21.80;99.90;;;;;;5033001;28;38081;-78
2023/10/02 11:30:00;;;;;;;27.02;13.93;;;21.80;99.90;;;;;;5033789;28;38388;-77
2023/10/02 11:32:45;;;;;;;21.38;12.45;;;21.80;99.90;;;;;;5038094;28;37415;-78
2023/10/02 11:35:12;;;;;;;24.45;13.73;;;21.90;99.90;;;;;;5040060;28;37149;-78
2023/10/02 11:37:46;;;;;;;25.05;13.48;;;21.80;99.90;;;;;;5027274;28;37933;-80
2023/10/02 11:40:13;;;;;;;25.13;13.38;;;21.90;99.90;;;;;;5022939;28;38330;-78
2023/10/02 11:42:40;;;;;;;25.17;13.77;;;22.00;99.90;;;;;;5020282;28;37862;-79
2023/10/02 11:45:10;;;;;;;21.70;12.40;;;21.90;99.90;;;;;;5038366;28;37410;-79
2023/10/02 11:47:37;;;;;;;22.63;12.60;;;22.10;99.90;;;;;;5022865;28;37769;-78
2023/10/02 11:50:07;;;;;;;19.73;11.70;;;22.10;99.90;;;;;;5023121;28;38283;-78
2023/10/02 11:52:33;;;;;;;23.20;11.82;;;22.20;99.90;;;;;;5044583;28;48789;-78
2023/10/02 11:55:00;;;;;;;21.08;11.75;;;22.40;99.90;;;;;;5043217;28;38816;-78
2023/10/02 11:57:26;;;;;;;20.90;11.00;;;22.60;99.90;;;;;;5034897;28;37947;-79
2023/10/02 11:59:52;;;;;;;20.40;11.68;;;22.50;99.90;;;;;;5029419;28;37829;-78
2023/10/02 12:02:18;;;;;;;23.50;12.80;;;22.60;99.90;;;;;;5027215;28;38599;-78
2023/10/02 12:04:45;;;;;;;20.58;12.02;;;22.60;99.90;;;;;;5048713;28;37484;-78
2023/10/02 12:07:16;;;;;;;23.13;12.70;;;22.60;99.90;;;;;;5037114;28;37805;-79
2023/10/02 12:09:47;;;;;;;19.15;11.68;;;22.60;99.90;;;;;;5027429;28;38807;-78
2023/10/02 12:12:13;;;;;;;17.15;10.35;;;22.60;99.90;;;;;;5031266;28;37770;-78
2023/10/02 12:14:39;;;;;;;21.80;11.63;;;22.80;99.90;;;;;;5028811;28;37839;-76
2023/10/02 12:17:06;;;;;;;20.15;11.80;;;22.70;99.90;;;;;;5025415;28;39648;-78
2023/10/02 12:19:36;;;;;;;23.02;12.57;;;22.50;99.90;;;;;;5050737;28;38716;-78
2023/10/02 12:22:05;;;;;;;17.52;9.50;;;22.50;99.90;;;;;;5030880;28;37388;-78
2023/10/02 12:24:32;;;;;;;20.27;11.88;;;22.70;99.90;;;;;;5044753;28;37172;-77
2023/10/02 12:26:58;;;;;;;24.02;12.10;;;22.70;99.90;;;;;;5036822;28;38244;-77
2023/10/02 12:29:25;;;;;;;18.85;10.77;;;22.60;99.90;;;;;;5040847;28;37741;-77
2023/10/02 12:31:52;;;;;;;21.05;10.90;;;22.70;99.90;;;;;;5026968;28;38537;-78
2023/10/02 12:34:19;;;;;;;23.30;13.13;;;22.80;99.90;;;;;;5045409;28;38297;-78
2023/10/02 12:36:48;;;;;;;22.50;12.05;;;22.90;99.90;;;;;;5024675;28;38161;-78
2023/10/02 12:39:16;;;;;;;20.48;10.85;;;22.80;99.90;;;;;;5042423;28;38710;-79
2023/10/02 12:41:43;;;;;;;18.10;9.95;;;22.90;99.90;;;;;;5023966;28;37867;-76
2023/10/02 12:44:09;;;;;;;18.63;10.98;;;22.90;99.90;;;;;;5028780;28;40959;-78
2023/10/02 12:47:02;;;;;;;20.48;10.05;;;23.00;99.90;;;;;;5039630;28;39284;-78
2023/10/02 12:49:26;;;;;;;22.17;12.80;;;23.20;99.90;;;;;;5037201;28;38574;-78
2023/10/02 12:51:54;;;;;;;24.73;12.23;;;23.10;99.90;;;;;;5018212;28;38507;-78
2023/10/02 12:54:20;;;;;;;23.58;12.40;;;23.00;99.90;;;;;;5026736;28;36539;-78
2023/10/02 12:56:46;;;;;;;21.92;12.05;;;23.00;99.90;;;;;;5021370;28;38609;-77
2023/10/02 12:59:13;;;;;;;21.73;11.35;;;23.00;99.90;;;;;;5020697;28;38092;-78
2023/10/02 13:01:39;;;;;;;19.65;11.00;;;23.00;99.90;;;;;;5026749;28;38589;-77
2023/10/02 13:04:06;;;;;;;23.90;11.70;;;23.10;99.90;;;;;;5041686;28;36219;-78
2023/10/02 13:06:33;;;;;;;22.63;11.13;;;23.30;99.90;;;;;;5039856;28;38708;-78
2023/10/02 13:09:09;;;;;;;21.63;11.40;;;23.40;99.90;;;;;;5017634;28;39458;-78
2023/10/02 13:11:45;;;;;;;21.65;10.85;;;23.50;99.90;;;;;;5043927;28;47122;-78
2023/10/02 13:14:23;;;;;;;22.30;11.38;;;23.60;99.90;;;;;;5020866;28;36501;-78
2023/10/02 13:16:49;;;;;;;19.73;11.70;;;23.40;99.90;;;;;;5016235;28;37873;-78
2023/10/02 13:19:16;;;;;;;19.90;10.70;;;23.40;99.90;;;;;;5037321;28;38782;-74
2023/10/02 13:22:02;;;;;;;19.77;10.70;;;23.50;99.90;;;;;;5009915;28;38802;-78
2023/10/02 13:24:29;;;;;;;19.55;10.32;;;23.50;99.90;;;;;;5004983;28;47390;-77
2023/10/02 13:26:55;;;;;;;22.17;12.40;;;23.60;99.90;;;;;;5006722;28;37536;-78
2023/10/02 13:29:23;;;;;;;23.40;12.07;;;23.60;99.90;;;;;;5021730;28;37709;-77
2023/10/02 13:31:51;;;;;;;17.15;9.82;;;23.50;99.90;;;;;;5043095;28;37933;-78
2023/10/02 13:34:18;;;;;;;22.38;13.23;;;23.60;99.90;;;;;;5021662;28;37554;-78
2023/10/02 13:36:47;;;;;;;22.38;12.63;;;23.60;99.90;;;;;;5024165;28;37774;-78
2023/10/02 13:39:17;;;;;;;24.48;12.20;;;23.60;99.90;;;;;;5022041;28;38629;-77
2023/10/02 13:41:43;;;;;;;23.25;11.82;;;23.60;99.90;;;;;;5005878;28;37920;-77
2023/10/02 13:44:11;;;;;;;28.50;13.15;;;23.80;99.90;;;;;;5020741;28;36744;-78
2023/10/02 13:46:40;;;;;;;28.20;13.63;;;23.80;99.90;;;;;;5042559;28;39975;-77